Richmond, VA (23289)

12:34 AM EDT on March 28, 2015 (GMT -0400)
Laurel Lakes | | Change Station
CLOSE
Current Station
Personal Weather Station
Location: Glen Allen, VA
Elevation: 220 ft
Nearby Weather Stations

Elev 220 ft 37.65 °N, 77.51 °W | Updated 14 seconds ago

Mostly Cloudy
Mostly Cloudy
38.7 °F
Feels Like 39 °F
N
0.0
Wind Variable Wind from SE
Gusts 1.0 mph

Today
High -- | Low -- °F
--% Chance of Precip.
Yesterday
High -- | Low -- °F
Precip. -- in
7:01 AM 7:29 PM
First Quarter, 59% visible
Pressure 29.84 in
Visibility 7.0 miles
Clouds Mostly Cloudy 12000 ft
Windchill 39 °F
Dew Point 37 °F
Humidity 94%
Rainfall 0.00 in
Snow Depth Not available.
UV 0 out of 12
Pollen 2.20 out of 12
Air Quality Not available.
Flu Activity Not available.
METAR KRIC 280354Z 30004KT 7SM BKN120 04/02 A2982 RMK AO2 SLP103 T00440022

More Conditions Fewer Conditions

Pressure 29.84 in
Visibility 7.0 miles
Clouds Mostly Cloudy 12000 ft
Windchill 39 °F
Dew Point 37 °F
Humidity 94%
Rainfall 0.00 in
Snow Depth Not available.
UV 0 out of 12
Pollen 2.20 out of 12
Air Quality Not available.
Flu Activity Not available.
METAR KRIC 280354Z 30004KT 7SM BKN120 04/02 A2982 RMK AO2 SLP103 T00440022

More Conditions Fewer Conditions

10-Day Weather Forecast

Almanac

Astronomy

Mar. 28, 2015 Rise Set
Actual Time
Civil Twilight
Nautical Twilight
Astronomical Twilight
Moon
Length of Visible Light
Length of Day
Tomorrow will be .
, % of the Moon is Illuminated

Today's Extremes

State Highs State Lows

Community

WunderPhotos

Upload Photos

1,808,928 photos uploaded!

WunderBlogs® & News

Nearby

Air Quality

  Air Quality AQ Index Pollutant
Not available.

Snow Depth

Station Depth Elevation

Earthquake Activity

City Distance Mag. Time & Date
Minimum magnitude displayed is 2.5.

Coastal Water Temperatures

Place Temperature

Stations

Nearby Weather Stations

Station Location Temp. Windchill Dew Point Humidity Wind Precip. Elev Updated Type